Terminal Aerodrome Forecast
Issued by NWS

Home | Current Version | Previous Version | Text Only | Print | Product List | Glossary On
Versions: 1 2 3 4 5 6 7 8 9 10 11 12 13 14 15 16 17 18 19
000
FTUS45 KTWC 272326
TAFOLS
TAF
KOLS 272326Z 2800/2824 29010G18KT P6SM FEW120
     FM280300 26006KT P6SM FEW120
     FM280600 14004KT P6SM FEW120
     FM281800 24015G23KT P6SM SKC=

USA.gov is the U.S. government's official web portal to all federal, state and local government web resources and services.